Vale do Aço Regional Airport

SBIP · 米纳斯吉拉斯州, 巴西

罗盘
风向 的 Usiminas Airport 5/23
风: 0 kt, 0 beaufort


改变
0 ft 1.000 2.000 3.000 4.000 5.000
CAVOK
METAR SBIP 262300Z AUTO 00000KT CAVOK 23/19 Q1015

METAR Usiminas Airport - SBIP/IPN

Usiminas Airport是,巴西中的中型机场。 该机场位于纬度-19,47060和经度-42,48748。 该机场有一条跑道: 5/23. 本场的ICAO机场代码为SBIP。 该机场的IATA代码为IPN。 机场在Brasilia FIR中。

该航空气象观测是针对Usiminas Airport在2024年2月26日 20:00, 当地时间进行的。

机场观察

可变方向的风很小或没有风。

天气为CAVOK。这意味着在5.000 ft或MSA(最低安全高度)以下(以较高者为准)以下没有云。这也意味着没有观测到积雨云或高耸的积云,可见度为10 km 或者更多或更高。此外,不会有雾,降雨或其他重要天气。

温度和风寒是23 °C。 露点为19 °C,相对湿度为78%。 海平面上的气压为1015 hPa (QNH)。

白天

今天,太阳从05:46升起,在18:19降落。 这适用于Usiminas Airport,世界夏令时可能有所不同。 当地时间与世界标准时间之间的时差为-3 小时。 当前,没有夏令时有效。

公司介绍

我们没有关于这个机场的公司信息。

体会

到Vliegles.nl去找飞行课程,跳伞和其他飞行体验。 浏览页面,了解Usiminas Airport附近所有可用的活动。 你也可以使用搜索功能来寻找你所在地附近的特定飞行课程、跳伞或其他飞行体验。

跑道

Id 标题 侧风 逆风 侧风 %
5/23 030°-210°

逆风成分最大的方向会被突出显示,并用于横风计算。 这并不一定意味着这个方向在使用。

温度 & 天气

温度 23 °C
露点 19 °C
相对湿度 78%
Kp-index 1 (0-9)

白天

日出
05:46 (9:08)
中午
12:02
日落
18:19

小工具

你想在你的网站上有一个关于Usiminas Airport的当前航空天气(METAR)的小部件吗?

显示HTML代码
?>